Terminal Aerodrome Forecast
Issued by NWS

Home | Current Version | Previous Version | Text Only | Print | Product List | Glossary On
Versions: 1 2 3 4 5 6 7 8 9 10 11 12 13 14
000
FTAK31 PAJN 160500
TAFAKT
TAF
PAKT 160523Z 1606/1706 30005KT P6SM SKC
     FM161000 VRB02KT 1SM BR VCFG OVC002
     FM161800 32004KT P6SM VCFG SCT005 BKN025
     FM162100 33006KT P6SM BKN100
      AMD LTD TO CLD VIS AND WIND 1606/1615=

USA.gov is the U.S. government's official web portal to all federal, state and local government web resources and services.